Terminal Aerodrome Forecast
Issued by NWS

Home | Current Version | Previous Version | Text Only | Print | Product List | Glossary On
Versions: 1 2 3 4 5 6 7 8 9 10 11 12 13 14 15 16 17 18 19 20
312
FTUS43 KPAH 282335
TAFCGI
TAF
KCGI 282335Z 2900/2924 36007KT P6SM FEW050
     FM290230 35005KT P6SM BKN050
     FM290600 33006KT P6SM OVC040
     FM291100 34010KT P6SM -SHRA BKN019 OVC030
     FM291700 33013KT P6SM VCSH OVC040=

USA.gov is the U.S. government's official web portal to all federal, state and local government web resources and services.